Time;durP1;ratioP1;P1;durP2;ratioP2;P2;SDS_P1;SDS_P2;PMS_P1;PMS_P2;Temp;Humidity;BMP_temperature;BMP_pressure;BME280_temperature;BME280_humidity;BME280_pressure;Samples;Min_cycle;Max_cycle;Signal;HPM_P1;HPM_P2
2022/07/25 00:01:29;;;;;;;5.75;5.28;;;;;;;19.90;80.10;100353.91;1809725;79;20936;-90
2022/07/25 00:03:57;;;;;;;8.30;6.55;;;;;;;19.91;80.08;100352.92;1809679;79;20987;-90
2022/07/25 00:06:24;;;;;;;7.67;5.75;;;;;;;19.91;80.03;100348.94;1809829;78;20888;-89
2022/07/25 00:08:50;;;;;;;9.03;5.83;;;;;;;19.90;80.14;100352.09;1809665;79;21414;-90
2022/07/25 00:11:18;;;;;;;8.55;6.33;;;;;;;19.89;80.26;100357.06;1810738;78;20880;-90
2022/07/25 00:13:45;;;;;;;8.65;6.72;;;;;;;19.86;80.38;100354.23;1814554;79;20892;-89
2022/07/25 00:16:13;;;;;;;7.65;5.60;;;;;;;19.83;80.57;100353.70;1814509;79;20856;-90
2022/07/25 00:18:39;;;;;;;5.47;5.08;;;;;;;19.80;80.66;100350.05;1814779;79;20901;-90
2022/07/25 00:21:09;;;;;;;5.53;5.12;;;;;;;19.77;80.32;100351.20;1815012;79;20955;-88
2022/07/25 00:23:37;;;;;;;6.08;5.47;;;;;;;19.76;79.34;100351.34;1815994;79;20967;-89
2022/07/25 00:26:04;;;;;;;5.75;5.25;;;;;;;19.76;78.70;100350.84;1815922;79;20873;-90
2022/07/25 00:28:31;;;;;;;6.05;5.45;;;;;;;19.77;78.39;100359.69;1814787;79;20927;-90
2022/07/25 00:30:58;;;;;;;5.65;5.17;;;;;;;19.78;78.11;100352.02;1814803;79;21464;-90
2022/07/25 00:33:26;;;;;;;5.70;4.85;;;;;;;19.79;77.91;100345.73;1814618;79;21149;-91
2022/07/25 00:35:52;;;;;;;5.65;5.12;;;;;;;19.81;77.90;100345.05;1814944;79;20904;-88
2022/07/25 00:38:18;;;;;;;5.40;5.00;;;;;;;19.83;77.78;100346.58;1815852;79;20931;-89
2022/07/25 00:40:45;;;;;;;4.78;4.37;;;;;;;19.85;77.79;100353.91;1817378;79;20927;-89
2022/07/25 00:43:12;;;;;;;6.55;4.92;;;;;;;19.87;77.80;100361.21;1817032;79;20841;-90
2022/07/25 00:45:39;;;;;;;10.38;4.95;;;;;;;19.88;77.72;100354.91;1815592;79;21130;-91
2022/07/25 00:48:07;;;;;;;7.15;5.47;;;;;;;19.90;77.62;100360.09;1815002;79;20966;-90
2022/07/25 00:50:34;;;;;;;5.42;4.97;;;;;;;19.90;77.54;100360.09;1814981;79;20923;-90
2022/07/25 00:53:02;;;;;;;5.30;4.80;;;;;;;19.92;77.56;100355.91;1816509;78;20920;-89
2022/07/25 00:55:29;;;;;;;5.80;5.28;;;;;;;19.92;77.68;100350.11;1817561;77;21021;-88
2022/07/25 00:57:55;;;;;;;5.67;5.17;;;;;;;19.93;77.77;100351.77;1816507;78;21113;-89
2022/07/25 01:00:22;;;;;;;5.22;4.83;;;;;;;19.92;77.87;100350.11;1814997;79;20931;-90
2022/07/25 01:02:49;;;;;;;5.65;5.15;;;;;;;19.95;77.87;100348.45;1815105;79;21128;-90
2022/07/25 01:05:15;;;;;;;5.62;5.12;;;;;;;19.96;78.00;100350.11;1815028;79;20983;-89
2022/07/25 01:07:42;;;;;;;4.90;4.40;;;;;;;19.98;78.09;100344.12;1815162;79;21314;-90
2022/07/25 01:10:10;;;;;;;6.45;5.90;;;;;;;19.99;78.03;100351.14;1815043;79;21684;-90
2022/07/25 01:12:46;;;;;;;5.90;5.40;;;;;;;20.00;77.98;100339.98;1814631;79;20955;-90
2022/07/25 01:15:16;;;;;;;5.60;5.03;;;;;;;20.02;78.03;100334.01;1814927;79;21369;-90
2022/07/25 01:17:44;;;;;;;5.92;5.33;;;;;;;20.06;78.10;100342.02;1815454;79;20868;-88
2022/07/25 01:20:20;;;;;;;5.92;5.47;;;;;;;20.08;78.19;100332.05;1816489;79;20915;-89
2022/07/25 01:22:47;;;;;;;5.92;5.33;;;;;;;20.11;78.10;100330.38;1817302;79;21123;-90
2022/07/25 01:25:14;;;;;;;6.03;5.42;;;;;;;20.15;78.19;100326.91;1816958;77;20896;-88
2022/07/25 01:27:40;;;;;;;5.90;5.40;;;;;;;20.17;78.14;100323.59;1817198;77;20829;-87
2022/07/25 01:30:11;;;;;;;7.65;5.37;;;;;;;20.19;78.26;100322.42;1816793;77;21014;-89
2022/07/25 01:32:38;;;;;;;5.65;4.97;;;;;;;20.21;78.27;100317.77;1816857;77;20853;-90
2022/07/25 01:35:06;;;;;;;6.30;5.75;;;;;;;20.23;78.37;100311.79;1816537;77;21255;-89
2022/07/25 01:37:32;;;;;;;5.67;5.17;;;;;;;20.27;78.39;100317.10;1816665;77;20927;-89
2022/07/25 01:39:59;;;;;;;5.17;4.78;;;;;;;20.30;78.43;100314.64;1816684;77;20920;-90
2022/07/25 01:42:26;;;;;;;6.28;5.67;;;;;;;20.32;78.65;100313.98;1816795;77;21101;-88
2022/07/25 01:44:54;;;;;;;6.47;5.30;;;;;;;20.35;78.66;100312.81;1817161;79;20955;-90
2022/07/25 01:47:20;;;;;;;5.42;5.03;;;;;;;20.37;78.61;100318.81;1817440;77;21199;-88
2022/07/25 01:49:47;;;;;;;5.95;5.17;;;;;;;20.37;78.55;100328.96;1817366;79;20919;-88
2022/07/25 01:52:14;;;;;;;8.00;6.78;;;;;;;20.35;78.34;100366.08;1817278;77;20907;-90
2022/07/25 01:54:40;;;;;;;12.58;7.28;;;;;;;20.33;78.01;100372.06;1815368;79;21298;-89
2022/07/25 01:57:07;;;;;;;9.88;7.42;;;;;;;20.29;77.49;100356.39;1815054;79;20959;-90
2022/07/25 01:59:39;;;;;;;9.63;7.90;;;;;;;20.29;77.22;100352.90;1815218;79;21114;-89
2022/07/25 02:02:06;;;;;;;15.32;8.68;;;;;;;20.32;77.14;100347.74;1815238;79;21079;-90
2022/07/25 02:04:34;;;;;;;14.03;7.47;;;;;;;20.37;76.99;100352.94;1815181;79;20852;-89
2022/07/25 02:07:00;;;;;;;13.25;7.70;;;;;;;20.41;76.65;100362.75;1815163;79;20892;-90
2022/07/25 02:09:27;;;;;;;10.58;8.18;;;;;;;20.43;76.48;100361.61;1815216;79;20908;-88
2022/07/25 02:11:55;;;;;;;13.70;8.38;;;;;;;20.45;76.50;100342.78;1812647;79;20873;-90
2022/07/25 02:14:22;;;;;;;15.00;9.23;;;;;;;20.48;76.29;100337.15;1805603;79;20837;-89
2022/07/25 02:16:49;;;;;;;13.68;8.40;;;;;;;20.52;76.12;100346.95;1805605;79;20920;-89
2022/07/25 02:19:18;;;;;;;12.40;8.68;;;;;;;20.53;76.18;100354.80;1804751;78;20936;-91
2022/07/25 02:21:45;;;;;;;12.95;8.53;;;;;;;20.55;76.45;100345.32;1805061;79;20888;-90
2022/07/25 02:24:11;;;;;;;10.00;7.62;;;;;;;20.57;76.64;100346.02;1805006;79;21140;-89
2022/07/25 02:26:38;;;;;;;11.73;8.38;;;;;;;20.57;76.67;100346.84;1805019;79;20983;-87
2022/07/25 02:29:04;;;;;;;10.65;8.15;;;;;;;20.58;76.98;100350.34;1806394;79;20869;-88
2022/07/25 02:31:31;;;;;;;14.05;8.43;;;;;;;20.60;77.21;100351.02;1805823;79;20963;-89
2022/07/25 02:33:59;;;;;;;12.95;8.83;;;;;;;20.60;77.40;100340.36;1807092;79;20968;-89
2022/07/25 02:36:26;;;;;;;14.93;8.88;;;;;;;20.60;77.14;100342.52;1806781;79;21199;-89
2022/07/25 02:38:52;;;;;;;10.15;7.92;;;;;;;20.62;77.40;100346.36;1805174;78;20873;-90
2022/07/25 02:41:20;;;;;;;15.03;9.03;;;;;;;20.63;77.56;100336.02;1804334;79;20956;-89
2022/07/25 02:43:46;;;;;;;15.55;8.98;;;;;;;20.65;77.57;100340.69;1804526;79;20979;-91
2022/07/25 02:46:13;;;;;;;20.27;10.53;;;;;;;;;;1804714;79;20865;-91
2022/07/25 02:48:39;;;;;;;19.60;10.63;;;;;;;20.68;77.30;100331.87;1804269;79;21300;-90
2022/07/25 02:51:07;;;;;;;19.65;10.43;;;;;;;20.72;76.95;100326.20;1804236;78;21512;-90
2022/07/25 02:53:34;;;;;;;18.92;12.20;;;;;;;20.74;77.08;100330.88;1804759;79;21009;-89
2022/07/25 02:56:01;;;;;;;16.60;9.45;;;;;;;20.77;77.14;100327.90;1804391;79;21009;-91
2022/07/25 02:58:27;;;;;;;19.25;9.15;;;;;;;20.81;77.31;100339.87;1804597;78;20940;-89
2022/07/25 03:00:54;;;;;;;17.15;10.72;;;;;;;20.83;77.48;100335.20;1804715;78;21229;-90
2022/07/25 03:03:21;;;;;;;14.65;10.03;;;;;;;20.86;77.74;100340.23;1804507;79;20976;-90
2022/07/25 03:05:49;;;;;;;19.57;10.63;;;;;;;20.87;77.85;100337.38;1804422;78;20921;-90
2022/07/25 03:08:17;;;;;;;18.48;10.00;;;;;;;20.89;77.95;100339.38;1776159;79;20983;-89
2022/07/25 03:10:45;;;;;;;17.87;10.13;;;;;;;20.91;78.03;100340.05;1805247;78;20919;-89
2022/07/25 03:13:11;;;;;;;14.73;9.78;;;;;;;20.92;78.07;100334.23;1808818;78;21126;-89
2022/07/25 03:15:38;;;;;;;17.30;10.43;;;;;;;20.92;77.99;100336.91;1811878;79;20924;-89
2022/07/25 03:18:06;;;;;;;15.43;8.33;;;;;;;20.92;78.12;100334.23;1811905;79;20948;-90
2022/07/25 03:20:33;;;;;;;15.28;9.03;;;;;;;20.93;78.15;100337.22;1811901;79;20923;-88
2022/07/25 03:22:59;;;;;;;17.12;9.98;;;;;;;20.94;78.33;100340.20;1812550;79;20916;-89
2022/07/25 03:25:26;;;;;;;24.77;11.48;;;;;;;20.96;78.17;100336.05;1812321;78;21477;-89
2022/07/25 03:27:53;;;;;;;17.02;10.15;;;;;;;20.97;78.18;100336.40;1811564;79;20880;-88
2022/07/25 03:30:20;;;;;;;13.32;9.15;;;;;;;20.99;78.12;100333.89;1811123;79;20912;-88
2022/07/25 03:32:46;;;;;;;15.98;10.30;;;;;;;21.03;78.08;100340.56;1809979;79;20924;-90
2022/07/25 03:35:15;;;;;;;17.48;10.68;;;;;;;21.06;77.75;100343.39;1809619;79;20857;-90
2022/07/25 03:37:41;;;;;;;18.73;9.08;;;;;;;21.09;77.67;100341.20;1809660;79;21070;-90
2022/07/25 03:40:11;;;;;;;15.45;9.98;;;;;;;21.11;77.65;100336.54;1809730;79;20928;-90
2022/07/25 03:42:38;;;;;;;16.42;9.28;;;;;;;21.15;77.60;100334.89;1810263;79;20956;-90
2022/07/25 03:45:06;;;;;;;17.15;9.25;;;;;;;21.17;77.67;100331.56;1809780;79;20974;-90
2022/07/25 03:47:32;;;;;;;16.32;8.63;;;;;;;21.21;77.51;100339.53;1809592;79;20872;-90
2022/07/25 03:50:01;;;;;;;12.07;8.65;;;;;;;21.24;77.46;100339.22;1809570;79;21102;-90
2022/07/25 03:52:27;;;;;;;13.43;8.13;;;;;;;21.26;77.28;100338.03;1809889;79;20963;-90
2022/07/25 03:54:54;;;;;;;15.00;8.53;;;;;;;21.29;77.20;100339.02;1810039;79;20880;-90
2022/07/25 03:57:21;;;;;;;11.12;7.30;;;;;;;21.33;77.01;100346.20;1809699;79;20872;-90
2022/07/25 03:59:47;;;;;;;14.65;8.38;;;;;;;21.36;76.82;100349.84;1810065;79;20924;-90
2022/07/25 04:02:14;;;;;;;12.60;7.62;;;;;;;21.40;76.76;100353.03;1809899;78;21818;-90
2022/07/25 04:04:41;;;;;;;10.48;7.60;;;;;;;21.42;76.68;100341.21;1810060;78;20877;-88
2022/07/25 04:07:08;;;;;;;13.18;7.50;;;;;;;21.45;76.40;100348.86;1810921;78;21398;-88
2022/07/25 04:09:34;;;;;;;11.65;7.22;;;;;;;21.46;76.17;100347.88;1810259;79;21405;-89
2022/07/25 04:12:01;;;;;;;9.60;7.30;;;;;;;21.48;76.31;100340.53;1809591;78;21310;-89
2022/07/25 04:14:28;;;;;;;11.57;7.10;;;;;;;21.50;76.32;100344.38;1809754;78;21100;-89
2022/07/25 04:16:55;;;;;;;9.28;7.25;;;;;;;21.52;76.40;100341.02;1809782;79;20884;-89
2022/07/25 04:19:21;;;;;;;12.43;7.20;;;;;;;21.56;76.27;100344.19;1809815;79;21397;-89
2022/07/25 04:21:48;;;;;;;15.75;7.25;;;;;;;21.57;76.30;100339.20;1809518;79;20928;-89
2022/07/25 04:24:14;;;;;;;10.05;6.35;;;;;;;21.59;76.35;100339.35;1809690;79;20924;-89
2022/07/25 04:26:41;;;;;;;7.75;6.95;;;;;;;21.61;76.13;100340.49;1809605;78;21148;-90
2022/07/25 04:29:08;;;;;;;11.55;7.53;;;;;;;21.63;75.92;100339.34;1809550;79;21374;-89
2022/07/25 04:31:35;;;;;;;6.92;6.25;;;;;;;21.64;75.95;100341.00;1809643;79;20904;-89
2022/07/25 04:34:01;;;;;;;9.23;6.65;;;;;;;21.68;75.56;100340.16;1809585;79;20923;-90
2022/07/25 04:36:28;;;;;;;7.45;6.33;;;;;;;21.68;75.54;100337.50;1809627;79;20876;-90
2022/07/25 04:38:55;;;;;;;11.18;7.30;;;;;;;21.70;75.32;100332.82;1810399;79;21128;-89
2022/07/25 04:41:21;;;;;;;8.30;7.10;;;;;;;;;;1781135;79;20868;-89
2022/07/25 04:43:48;;;;;;;8.03;7.10;;;;;;;21.72;75.21;100332.97;1809679;79;20983;-89
2022/07/25 04:46:20;;;;;;;11.08;7.17;;;;;;;21.75;75.08;100327.79;1809697;79;20924;-91
2022/07/25 04:48:46;;;;;;;10.43;7.37;;;;;;;21.77;74.98;100330.30;1809404;79;20971;-90
2022/07/25 04:51:13;;;;;;;9.35;8.00;;;;;;;21.79;74.78;100337.60;1810242;79;21135;-90
2022/07/25 04:53:39;;;;;;;12.55;7.22;;;;;;;21.81;74.82;100342.27;1810793;78;20884;-89
2022/07/25 04:56:07;;;;;;;11.57;7.22;;;;;;;21.80;74.92;100334.77;1812680;78;20916;-89
2022/07/25 04:58:34;;;;;;;12.30;7.47;;;;;;;21.81;74.92;100332.92;1812804;78;20940;-89
2022/07/25 05:01:01;;;;;;;8.95;8.13;;;;;;;21.82;75.00;100329.27;1811266;78;20849;-89
2022/07/25 05:03:29;;;;;;;10.98;7.28;;;;;;;21.82;74.99;100330.09;1782169;79;21405;-89
2022/07/25 05:05:56;;;;;;;8.58;7.78;;;;;;;21.82;74.95;100328.76;1810218;78;20868;-91
2022/07/25 05:08:24;;;;;;;9.73;7.87;;;;;;;21.84;74.85;100327.27;1810013;79;21314;-90
2022/07/25 05:10:52;;;;;;;10.38;7.62;;;;;;;21.84;74.91;100318.74;1809766;79;20853;-90
2022/07/25 05:13:19;;;;;;;9.25;7.45;;;;;;;21.82;74.43;100319.41;1807407;78;20900;-89
2022/07/25 05:15:46;;;;;;;11.75;7.72;;;;;;;21.79;74.49;100325.11;1804591;79;21381;-89
2022/07/25 05:18:13;;;;;;;8.68;7.90;;;;;;;21.78;74.85;100321.27;1804414;79;20889;-91
2022/07/25 05:20:39;;;;;;;13.70;7.72;;;;;;;21.78;74.78;100325.27;1804270;78;20857;-90
2022/07/25 05:23:06;;;;;;;9.35;8.33;;;;;;;21.77;74.96;100314.28;1804323;79;21008;-90
2022/07/25 05:25:32;;;;;;;8.55;7.78;;;;;;;21.76;75.09;100324.61;1804464;78;20971;-88
2022/07/25 05:28:00;;;;;;;10.18;9.18;;;;;;;21.73;75.22;100318.61;1804545;79;21225;-90
2022/07/25 05:30:28;;;;;;;9.35;8.33;;;;;;;21.72;75.52;100314.29;1804439;79;20963;-90
2022/07/25 05:32:55;;;;;;;8.75;7.87;;;;;;;21.72;75.63;100316.10;1804527;79;20881;-91
2022/07/25 05:35:23;;;;;;;9.23;7.97;;;;;;;21.71;75.66;100317.12;1804410;79;20838;-91
2022/07/25 05:37:51;;;;;;;15.78;8.28;;;;;;;21.71;75.66;100314.45;1804729;79;20928;-90
2022/07/25 05:40:18;;;;;;;9.80;8.43;;;;;;;21.70;75.79;100318.14;1804323;78;21775;-91
2022/07/25 05:42:45;;;;;;;9.98;8.83;;;;;;;21.71;75.98;100313.95;1804305;78;20885;-92
2022/07/25 05:45:12;;;;;;;10.23;9.30;;;;;;;21.71;75.97;100319.28;1804823;79;20850;-91
2022/07/25 05:47:39;;;;;;;12.55;8.80;;;;;;;21.72;76.24;100316.10;1804587;78;20903;-92
2022/07/25 05:50:08;;;;;;;19.15;10.45;;;;;;;21.75;76.40;100315.78;1804615;79;20948;-91
2022/07/25 05:52:35;;;;;;;9.30;8.40;;;;;;;21.77;76.54;100311.10;1804846;79;21310;-90
2022/07/25 05:55:02;;;;;;;9.78;8.93;;;;;;;21.81;76.60;100317.77;1804963;79;20880;-90
2022/07/25 05:57:29;;;;;;;9.55;8.75;;;;;;;21.84;76.48;100318.74;1805609;79;20956;-89
2022/07/25 05:59:56;;;;;;;9.98;9.13;;;;;;;21.87;76.48;100321.05;1806747;79;20912;-88
2022/07/25 06:02:23;;;;;;;11.65;10.45;;;;;;;21.89;76.36;100308.36;1807314;79;21019;-89
2022/07/25 06:04:49;;;;;;;11.48;9.98;;;;;;;21.90;75.97;100304.70;1807331;79;21186;-88
2022/07/25 06:07:17;;;;;;;10.58;9.55;;;;;;;21.89;75.98;100289.68;1807085;79;20963;-88
2022/07/25 06:09:44;;;;;;;10.43;9.60;;;;;;;21.86;75.82;100286.03;1806285;79;20876;-89
2022/07/25 06:12:12;;;;;;;10.43;9.53;;;;;;;21.83;75.75;100281.05;1804462;79;20880;-90
2022/07/25 06:14:39;;;;;;;11.57;10.43;;;;;;;21.79;75.92;100281.06;1813471;78;20924;-90
2022/07/25 06:17:06;;;;;;;11.53;9.80;;;;;;;21.78;75.42;100278.56;1815578;79;21787;-91
2022/07/25 06:19:32;;;;;;;12.33;10.30;;;;;;;21.77;76.02;100285.74;1815198;79;21362;-88
2022/07/25 06:22:00;;;;;;;21.37;11.97;;;;;;;21.77;76.59;100282.25;1815057;79;20940;-90
2022/07/25 06:24:26;;;;;;;12.40;11.18;;;;;;;21.78;77.18;100286.56;1815434;79;20948;-89
2022/07/25 06:26:52;;;;;;;15.30;10.05;;;;;;;21.78;77.62;100278.05;1814852;79;20900;-88
2022/07/25 06:29:19;;;;;;;10.53;9.50;;;;;;;21.79;77.87;100282.88;1814756;79;21197;-90
2022/07/25 06:31:46;;;;;;;11.60;10.40;;;;;;;21.79;78.16;100282.88;1814983;79;20853;-89
2022/07/25 06:34:14;;;;;;;11.70;10.50;;;;;;;21.80;78.40;100288.05;1814962;79;20876;-90
2022/07/25 06:36:40;;;;;;;10.48;9.58;;;;;;;21.79;78.70;100279.73;1815079;79;20927;-88
2022/07/25 06:39:09;;;;;;;10.78;9.78;;;;;;;21.78;78.83;100288.73;1814786;79;21061;-89
2022/07/25 06:41:37;;;;;;;10.23;9.33;;;;;;;21.77;79.11;100280.41;1814887;79;21797;-90
2022/07/25 06:44:04;;;;;;;11.08;9.90;;;;;;;21.78;79.41;100281.23;1814877;79;20895;-89
2022/07/25 06:46:31;;;;;;;11.03;9.55;;;;;;;21.79;79.51;100277.54;1815065;79;21492;-90
2022/07/25 06:48:58;;;;;;;11.97;10.30;;;;;;;21.78;79.62;100279.39;1815356;79;21389;-90
2022/07/25 06:51:25;;;;;;;11.93;10.53;;;;;;;21.77;79.86;100279.58;1814945;79;20986;-89
2022/07/25 06:53:52;;;;;;;12.68;11.45;;;;;;;21.75;79.95;100278.41;1815417;79;21248;-88
2022/07/25 06:56:19;;;;;;;13.08;11.10;;;;;;;21.75;79.99;100284.25;1815600;79;21456;-88
2022/07/25 06:58:45;;;;;;;12.25;11.03;;;;;;;21.75;79.77;100282.92;1815583;79;20903;-89
2022/07/25 07:01:12;;;;;;;11.50;10.60;;;;;;;21.73;79.66;100289.76;1817008;79;20927;-90
2022/07/25 07:03:40;;;;;;;11.73;10.45;;;;;;;21.71;79.84;100288.59;1816187;79;20990;-87
2022/07/25 07:06:08;;;;;;;13.43;12.33;;;;;;;21.74;80.28;100291.41;1815878;79;21151;-90
2022/07/25 07:08:36;;;;;;;12.40;11.25;;;;;;;21.80;80.76;100298.73;1815635;79;20880;-92
2022/07/25 07:11:04;;;;;;;12.73;11.43;;;;;;;21.88;81.21;100291.20;1815624;79;21311;-90
2022/07/25 07:13:32;;;;;;;13.03;11.93;;;;;;;21.97;81.26;100300.02;1813180;79;20939;-90
2022/07/25 07:15:59;;;;;;;16.55;15.13;;;;;;;22.07;80.65;100296.61;1805065;79;20991;-91
2022/07/25 07:18:25;;;;;;;16.77;15.18;;;;;;;22.15;79.90;100296.06;1776601;79;21263;-90
2022/07/25 07:20:52;;;;;;;14.35;13.05;;;;;;;22.25;79.35;100301.71;1805199;78;20920;-89
2022/07/25 07:23:19;;;;;;;15.50;10.90;;;;;;;22.39;78.95;100304.13;1804910;78;20936;-90
2022/07/25 07:25:46;;;;;;;11.45;10.50;;;;;;;22.53;78.40;100301.53;1776189;79;21386;-90
2022/07/25 07:28:13;;;;;;;11.35;10.45;;;;;;;22.76;77.98;100304.19;1804965;79;20908;-87
2022/07/25 07:30:39;;;;;;;11.00;9.88;;;;;;;23.06;77.49;100300.82;1776289;79;21642;-90
2022/07/25 07:33:06;;;;;;;9.83;9.00;;;;;;;23.43;76.60;100299.92;1804482;79;20849;-90
2022/07/25 07:35:33;;;;;;;10.48;9.05;;;;;;;23.80;75.39;100295.52;1804281;79;20991;-90
2022/07/25 07:37:59;;;;;;;10.25;9.20;;;;;;;24.19;73.78;100283.11;1804557;79;21011;-91
2022/07/25 07:40:26;;;;;;;10.08;9.15;;;;;;;24.55;72.62;100288.15;1804488;78;20869;-88
2022/07/25 07:42:56;;;;;;;9.43;8.73;;;;;;;24.90;71.10;100292.25;1804516;79;20927;-90
2022/07/25 07:45:24;;;;;;;8.73;7.97;;;;;;;25.24;69.82;100288.84;1804724;79;20885;-91
2022/07/25 07:47:52;;;;;;;9.28;8.58;;;;;;;25.50;68.54;100296.24;1804927;79;20915;-91
2022/07/25 07:50:25;;;;;;;8.68;7.97;;;;;;;25.71;67.30;100295.30;1805799;79;20924;-89
2022/07/25 07:52:54;;;;;;;8.40;7.80;;;;;;;25.93;66.57;100297.92;1805997;79;20889;-91
2022/07/25 07:58:06;;;;;;;8.15;7.45;;;;;;;26.32;63.94;100289.13;1805264;79;20983;-91
2022/07/25 08:00:38;;;;;;;8.18;7.35;;;;;;;26.42;63.07;100290.09;1805037;79;20903;-90
2022/07/25 08:03:07;;;;;;;8.78;7.87;;;;;;;26.49;62.08;100288.77;1804924;79;20884;-89
2022/07/25 08:05:40;;;;;;;8.15;7.45;;;;;;;26.52;61.48;100293.72;1804914;79;20900;-89
2022/07/25 08:08:09;;;;;;;9.03;8.13;;;;;;;26.53;61.37;100291.36;1804773;78;21429;-89
2022/07/25 08:10:39;;;;;;;7.97;7.35;;;;;;;26.53;61.14;100286.80;1804951;79;20884;-91
2022/07/25 08:13:20;;;;;;;8.05;7.45;;;;;;;26.54;61.33;100289.79;1805139;79;21019;-89
2022/07/25 08:15:50;;;;;;;8.73;7.70;;;;;;;26.56;60.95;100294.48;1805188;79;20940;-89
2022/07/25 08:18:18;;;;;;;8.30;7.60;;;;;;;26.58;60.79;100292.42;1805156;79;20917;-90
2022/07/25 08:20:45;;;;;;;8.38;7.75;;;;;;;26.63;60.44;100294.49;1805411;79;21963;-89
2022/07/25 08:23:20;;;;;;;9.13;8.33;;;;;;;26.62;60.43;100293.67;1804965;79;20998;31
2022/07/25 08:25:49;;;;;;;7.60;6.92;;;;;;;26.58;60.16;100291.59;1648809;86;21392;-88
2022/07/25 08:28:15;;;;;;;10.05;9.13;;;;;;;26.54;60.28;100295.17;1675310;84;20990;-90
2022/07/25 08:30:42;;;;;;;10.08;7.35;;;;;;;26.54;60.04;100292.48;1674645;84;20908;-90
2022/07/25 08:33:13;;;;;;;7.47;6.97;;;;;;;26.53;60.33;100292.70;1674663;84;21218;-90
2022/07/25 08:35:40;;;;;;;7.28;6.30;;;;;;;26.52;60.00;100293.20;1674571;84;20864;-91
2022/07/25 08:38:10;;;;;;;7.45;6.80;;;;;;;26.52;59.71;100293.20;1674502;84;20971;-90
2022/07/25 08:40:37;;;;;;;7.12;6.60;;;;;;;26.50;59.94;100301.16;1674209;84;21039;-91
2022/07/25 08:43:04;;;;;;;6.83;6.20;;;;;;;26.49;59.81;100300.34;1674219;84;20939;-90
2022/07/25 08:45:33;;;;;;;7.85;7.05;;;;;;;26.49;59.89;100299.00;1674571;85;21381;-88
2022/07/25 08:48:01;;;;;;;7.17;6.58;;;;;;;26.50;60.01;100296.61;1674708;84;20935;-89
2022/07/25 08:50:28;;;;;;;7.92;6.17;;;;;;;26.54;60.10;100295.69;1674595;85;20979;-91
2022/07/25 08:52:55;;;;;;;6.70;6.12;;;;;;;26.54;59.98;100291.13;1674780;84;21045;-91
2022/07/25 08:55:23;;;;;;;7.28;6.58;;;;;;;26.52;59.69;100290.51;1674597;84;21361;-93
2022/07/25 08:57:52;;;;;;;7.67;6.47;;;;;;;26.49;59.77;100287.42;1674917;84;22074;-91
2022/07/25 09:00:23;;;;;;;6.70;6.20;;;;;;;26.47;59.88;100292.47;1675114;84;20928;-92
2022/07/25 09:02:52;;;;;;;7.17;6.55;;;;;;;26.47;59.77;100291.65;1674888;84;20951;-90
2022/07/25 09:05:21;;;;;;;6.55;5.95;;;;;;;26.49;59.59;100291.45;1674876;85;20943;-90
2022/07/25 09:07:50;;;;;;;6.72;6.22;;;;;;;26.46;59.23;100285.97;1674634;84;20915;-90
2022/07/25 09:10:26;;;;;;;7.37;6.45;;;;;;;26.46;59.41;100290.83;1674340;85;21125;-89
2022/07/25 09:13:12;;;;;;;6.95;6.35;;;;;;;26.46;59.52;100283.28;1674348;84;20935;-91
2022/07/25 09:15:46;;;;;;;6.78;6.10;;;;;;;26.47;59.42;100286.27;1674128;84;20995;-90
2022/07/25 09:18:15;;;;;;;6.58;5.97;;;;;;;26.52;59.30;100284.31;1674611;84;21421;-90
2022/07/25 09:20:48;;;;;;;7.30;6.60;;;;;;;26.60;59.16;100281.46;1674333;84;20943;-89
2022/07/25 09:23:28;;;;;;;5.70;5.20;;;;;;;26.76;59.08;100280.23;1674314;84;21147;-90
2022/07/25 09:29:17;;;;;;;7.20;5.10;;;;;;;27.39;57.26;100271.19;1798823;79;22541;-89
2022/07/25 09:31:44;;;;;;;7.53;4.70;;;;;;;27.61;56.88;100277.63;1759513;80;20888;-90
2022/07/25 09:34:11;;;;;;;4.53;4.22;;;;;;;27.90;55.58;100265.02;1759737;80;21211;-90
2022/07/25 09:36:53;;;;;;;13.90;12.60;;;;;;;28.28;55.30;100257.94;1759223;81;20940;-91
2022/07/25 09:39:20;;;;;;;5.12;4.70;;;;;;;28.71;54.29;100259.96;1759225;80;20963;-90
2022/07/25 09:41:48;;;;;;;4.42;4.03;;;;;;;29.20;53.42;100252.88;1760272;81;20923;-88
2022/07/25 09:44:21;;;;;;;3.85;3.62;;;;;;;29.67;52.46;100253.70;1761434;80;20931;-87
2022/07/25 09:46:47;;;;;;;3.83;3.52;;;;;;;29.97;51.01;100256.48;1761819;79;21680;-90
2022/07/25 09:49:14;;;;;;;4.10;3.80;;;;;;;30.16;50.13;100238.30;1760788;81;20880;-91
2022/07/25 09:51:43;;;;;;;6.47;3.35;;;;;;;30.26;49.60;100245.84;1759738;80;21466;-92
2022/07/25 09:54:13;;;;;;;5.60;3.70;;;;;;;30.43;49.34;100242.80;1759950;81;20920;-89
2022/07/25 09:56:43;;;;;;;3.60;3.17;;;;;;;30.62;48.61;100241.38;1760284;80;20884;-90
2022/07/25 09:59:10;;;;;;;3.50;3.02;;;;;;;30.82;48.61;100243.75;1760238;80;22095;-90
2022/07/25 10:01:52;;;;;;;3.60;2.80;;;;;;;30.87;47.02;100246.06;1759828;81;21042;-90
2022/07/25 10:04:25;;;;;;;2.72;2.52;;;;;;;30.95;46.83;100242.20;1758560;80;20884;-91
2022/07/25 10:07:00;;;;;;;5.28;4.87;;;;;;;30.96;46.93;100241.94;1741291;81;20884;-90
2022/07/25 10:09:27;;;;;;;5.53;4.85;;;;;;;30.94;47.08;100239.17;1758211;80;20920;-89
2022/07/25 10:12:08;;;;;;;5.72;4.22;;;;;;;30.84;46.88;100237.04;1759202;80;21293;-90
2022/07/25 10:14:36;;;;;;;3.40;2.25;;;;;;;30.63;46.70;100236.25;1759275;80;20920;-88
2022/07/25 10:17:05;;;;;;;6.03;5.53;;;;;;;30.35;46.95;100233.69;1759317;80;20896;-91
2022/07/25 10:19:41;;;;;;;3.50;2.60;;;;;;;30.42;47.74;100234.94;1759026;81;20928;-90
2022/07/25 10:22:09;;;;;;;6.67;5.28;;;;;;;30.58;47.98;100239.66;1759672;80;20991;-92
2022/07/25 10:24:37;;;;;;;5.75;3.40;;;;;;;30.81;47.27;100229.37;1759562;80;21137;-90
2022/07/25 10:27:22;;;;;;;3.40;3.17;;;;;;;30.82;46.40;100231.03;1758767;80;20888;-92
2022/07/25 10:29:53;;;;;;;2.95;2.75;;;;;;;30.76;46.32;100230.61;1745932;81;20901;-91
2022/07/25 10:32:23;;;;;;;3.10;2.80;;;;;;;30.85;46.56;100228.38;1745967;81;20932;-90
2022/07/25 10:34:53;;;;;;;3.42;2.92;;;;;;;30.82;46.77;100222.09;1736173;82;21046;-90
2022/07/25 10:37:28;;;;;;;3.50;3.17;;;;;;;30.92;46.63;100233.17;1746901;81;21099;-89
2022/07/25 10:39:55;;;;;;;4.40;4.08;;;;;;;31.09;46.31;100229.23;1746396;81;20834;-89
2022/07/25 10:42:22;;;;;;;3.15;2.83;;;;;;;31.22;45.40;100228.16;1735123;82;21330;-90
2022/07/25 10:44:59;;;;;;;3.75;3.40;;;;;;;31.47;44.53;100223.28;1755359;80;20955;-91
2022/07/25 10:47:26;;;;;;;2.98;2.80;;;;;;;31.59;44.12;100219.17;1780940;79;21392;-90
2022/07/25 10:49:58;;;;;;;3.75;2.90;;;;;;;31.64;43.63;100213.87;1781834;80;21139;-90
2022/07/25 10:52:28;;;;;;;2.67;2.47;;;;;;;31.89;43.29;100216.78;1781505;80;20921;-91
2022/07/25 10:54:59;;;;;;;2.77;2.55;;;;;;;31.93;43.27;100213.33;1781569;80;20880;-90
2022/07/25 10:57:27;;;;;;;2.70;2.50;;;;;;;32.09;43.29;100210.93;1781699;80;20868;-92
2022/07/25 10:59:53;;;;;;;2.40;2.22;;;;;;;32.27;43.03;100201.73;1781588;80;21416;-91
2022/07/25 11:02:20;;;;;;;2.50;2.30;;;;;;;32.45;42.13;100201.48;1781666;80;21122;-91
2022/07/25 11:05:01;;;;;;;2.35;2.25;;;;;;;32.63;41.45;100187.67;1725679;80;20911;-91
2022/07/25 11:07:34;;;;;;;2.40;2.25;;;;;;;32.94;41.62;100191.38;1781855;80;21014;-91
2022/07/25 11:09:59;;;;;;;2.47;2.30;;;;;;;33.21;41.15;100191.48;1780702;79;20967;-90
2022/07/25 11:12:30;;;;;;;2.20;2.10;;;;;;;33.49;40.98;100191.83;1781645;80;21499;-92
2022/07/25 11:15:05;;;;;;;3.70;2.37;;;;;;;33.64;40.53;100192.58;1781861;80;21072;-93
2022/07/25 11:17:33;;;;;;;1.50;1.40;;;;;;;33.61;39.54;100187.62;1782281;80;20903;-91
2022/07/25 11:20:05;;;;;;;2.20;1.45;;;;;;;33.64;39.66;100193.94;1782411;80;20991;-91
2022/07/25 11:22:33;;;;;;;3.67;1.50;;;;;;;33.61;39.70;100191.70;1782580;80;20947;-90
2022/07/25 11:25:00;;;;;;;4.33;1.30;;;;;;;33.56;39.10;100183.47;1783217;80;20980;-90
2022/07/25 11:27:32;;;;;;;1.10;1.10;;;;;;;33.55;39.02;100182.66;1752040;80;24026;-91
2022/07/25 11:30:14;;;;;;;2.25;2.12;;;;;;;33.50;39.18;100183.94;1782254;80;20900;-90
2022/07/25 11:32:55;;;;;;;3.45;2.70;;;;;;;33.37;39.44;100197.41;1781959;80;21318;-90